createdAt,value
2023-05-10T00:00:16.574Z,10.94
2023-05-10T00:03:05.808Z,10.82
2023-05-10T00:05:33.741Z,10.80
2023-05-10T00:08:01.542Z,10.80
2023-05-10T00:10:29.362Z,10.83
2023-05-10T00:12:57.158Z,10.79
2023-05-10T00:15:24.997Z,10.77
2023-05-10T00:17:52.979Z,10.75
2023-05-10T00:20:21.388Z,10.76
2023-05-10T00:22:49.299Z,10.67
2023-05-10T00:25:17.325Z,10.60
2023-05-10T00:27:45.138Z,10.64
2023-05-10T00:30:13.192Z,10.57
2023-05-10T00:32:41.272Z,10.48
2023-05-10T00:35:09.406Z,10.44
2023-05-10T00:37:37.330Z,10.40
2023-05-10T00:40:07.015Z,10.33
2023-05-10T00:42:34.866Z,10.38
2023-05-10T00:45:05.316Z,10.25
2023-05-10T00:47:34.076Z,10.26
2023-05-10T00:50:02.808Z,10.19
2023-05-10T00:52:31.495Z,10.20
2023-05-10T00:55:01.025Z,10.25
2023-05-10T00:57:29.289Z,10.10
2023-05-10T00:59:58.719Z,10.07
2023-05-10T01:02:26.636Z,10.00
2023-05-10T01:04:55.805Z,10.16
2023-05-10T01:07:24.298Z,10.26
2023-05-10T01:09:52.505Z,10.21
2023-05-10T01:12:20.754Z,10.21
2023-05-10T01:14:49.405Z,10.02
2023-05-10T01:17:18.415Z,9.98
2023-05-10T01:19:48.530Z,10.01
2023-05-10T01:23:02.098Z,9.99
2023-05-10T01:25:45.528Z,10.04
2023-05-10T01:28:40.002Z,9.95
2023-05-10T01:31:26.685Z,9.95
2023-05-10T01:34:13.999Z,9.90
2023-05-10T01:36:59.576Z,9.88
2023-05-10T01:39:56.167Z,9.85
2023-05-10T01:42:34.636Z,9.69
2023-05-10T01:45:04.180Z,9.51
2023-05-10T01:47:41.355Z,9.63
2023-05-10T01:50:18.096Z,9.71
2023-05-10T01:52:55.571Z,9.66
2023-05-10T01:55:29.510Z,9.65
2023-05-10T01:58:15.325Z,9.54
2023-05-10T02:00:48.199Z,9.34
2023-05-10T02:03:17.137Z,9.36
2023-05-10T02:05:49.222Z,9.39
2023-05-10T02:08:19.597Z,9.38
2023-05-10T02:10:50.184Z,9.34
2023-05-10T02:13:20.271Z,9.41
2023-05-10T02:15:50.750Z,9.34
2023-05-10T02:18:19.607Z,9.35
2023-05-10T02:20:48.184Z,9.29
2023-05-10T02:23:19.178Z,9.25
2023-05-10T02:25:48.977Z,9.29
2023-05-10T02:28:18.614Z,9.23
2023-05-10T02:30:48.567Z,9.23
2023-05-10T02:33:17.779Z,9.25
2023-05-10T02:35:47.864Z,9.21
2023-05-10T02:38:17.036Z,9.22
2023-05-10T02:40:45.435Z,9.01
2023-05-10T02:43:17.341Z,9.11
2023-05-10T02:45:48.549Z,9.07
2023-05-10T02:48:17.543Z,9.05
2023-05-10T02:50:52.152Z,9.02
2023-05-10T02:53:27.553Z,9.11
2023-05-10T02:56:00.441Z,8.97
2023-05-10T02:58:28.531Z,8.91
2023-05-10T03:00:56.448Z,8.78
2023-05-10T03:03:24.372Z,8.86
2023-05-10T03:05:54.695Z,8.81
2023-05-10T03:08:24.713Z,8.89
2023-05-10T03:11:13.644Z,8.92
2023-05-10T03:14:03.683Z,8.84
2023-05-10T03:17:08.212Z,8.86
2023-05-10T03:19:51.823Z,8.82
2023-05-10T03:22:38.155Z,8.94
2023-05-10T03:25:11.091Z,8.94
2023-05-10T03:27:42.833Z,9.06
2023-05-10T03:30:14.076Z,8.98
2023-05-10T03:32:42.716Z,8.82
2023-05-10T03:35:13.248Z,8.82
2023-05-10T03:37:41.211Z,8.85
2023-05-10T03:40:10.961Z,8.81
2023-05-10T03:42:40.190Z,8.85
2023-05-10T03:45:09.466Z,9.06
2023-05-10T03:47:37.430Z,9.02
2023-05-10T03:50:07.887Z,8.92
2023-05-10T03:52:35.812Z,9.06
2023-05-10T03:55:04.613Z,9.07
2023-05-10T03:57:33.169Z,9.05
2023-05-10T04:00:01.788Z,9.12
2023-05-10T04:02:30.983Z,9.03
2023-05-10T04:04:59.052Z,9.19
2023-05-10T04:07:34.501Z,9.22
2023-05-10T04:10:02.572Z,9.23
2023-05-10T04:12:32.869Z,9.32
2023-05-10T04:15:01.272Z,9.37
2023-05-10T04:17:29.167Z,9.46
2023-05-10T04:19:57.047Z,9.41
2023-05-10T04:22:24.884Z,9.42
2023-05-10T04:24:52.675Z,9.45
2023-05-10T04:27:20.834Z,9.47
2023-05-10T04:29:49.334Z,9.49
2023-05-10T04:32:18.146Z,9.48
2023-05-10T04:34:45.988Z,9.65
2023-05-10T04:37:13.850Z,9.59
2023-05-10T04:39:43.625Z,9.68
2023-05-10T04:42:12.286Z,9.79
2023-05-10T04:44:40.636Z,9.82
2023-05-10T04:47:09.910Z,9.86
2023-05-10T04:49:39.037Z,9.93
2023-05-10T04:52:07.180Z,10.08
2023-05-10T04:54:35.616Z,9.99
2023-05-10T04:57:03.580Z,10.00
2023-05-10T04:59:31.431Z,10.07
2023-05-10T05:01:59.325Z,10.17
2023-05-10T05:04:27.221Z,10.35
2023-05-10T05:06:55.050Z,10.33
2023-05-10T05:09:22.838Z,10.39
2023-05-10T05:11:50.708Z,10.54
2023-05-10T05:14:18.611Z,10.57
2023-05-10T05:16:46.341Z,10.68
2023-05-10T05:19:14.103Z,10.71
2023-05-10T05:21:42.052Z,10.75
2023-05-10T05:24:11.174Z,10.79
2023-05-10T05:26:39.703Z,10.73
2023-05-10T05:29:07.655Z,10.88
2023-05-10T05:31:35.543Z,10.88
2023-05-10T05:34:03.357Z,11.02
2023-05-10T05:36:32.450Z,11.16
2023-05-10T05:39:00.263Z,11.30
2023-05-10T05:41:28.077Z,11.39
2023-05-10T05:43:56.078Z,11.43
2023-05-10T05:46:23.893Z,11.51
2023-05-10T05:48:51.707Z,11.62
2023-05-10T05:51:19.607Z,11.68
2023-05-10T05:53:47.364Z,11.69
2023-05-10T05:56:15.220Z,11.67
2023-05-10T05:58:43.105Z,11.72
2023-05-10T06:01:10.870Z,11.98
2023-05-10T06:03:38.779Z,12.10
2023-05-10T06:06:06.947Z,12.15
2023-05-10T06:08:35.165Z,12.20
2023-05-10T06:11:04.938Z,12.27
2023-05-10T06:13:34.348Z,12.32
2023-05-10T06:16:03.771Z,12.39
2023-05-10T06:18:31.853Z,12.38
2023-05-10T06:20:59.644Z,12.53
2023-05-10T06:23:27.630Z,12.73
2023-05-10T06:25:55.810Z,12.80
2023-05-10T06:28:23.830Z,12.90
2023-05-10T06:30:51.598Z,13.04
2023-05-10T06:33:19.424Z,13.14
2023-05-10T06:35:47.233Z,13.13
2023-05-10T06:38:15.317Z,13.18
2023-05-10T06:40:43.646Z,13.30
2023-05-10T06:43:11.608Z,13.32
2023-05-10T06:45:39.428Z,13.47
2023-05-10T06:48:08.255Z,13.62
2023-05-10T06:50:36.212Z,13.68
2023-05-10T06:53:04.728Z,13.78
2023-05-10T06:55:32.607Z,13.87
2023-05-10T06:58:00.508Z,13.96
2023-05-10T07:00:28.461Z,14.04
2023-05-10T07:02:56.753Z,14.17
2023-05-10T07:05:25.005Z,14.16
2023-05-10T07:07:52.837Z,14.39
2023-05-10T07:10:20.809Z,14.56
2023-05-10T07:12:49.026Z,14.65
2023-05-10T07:15:17.235Z,14.77
2023-05-10T07:17:46.482Z,14.86
2023-05-10T07:20:14.477Z,14.90
2023-05-10T07:22:42.315Z,14.97
2023-05-10T07:25:10.696Z,15.09
2023-05-10T07:27:38.543Z,15.13
2023-05-10T07:30:07.331Z,15.23
2023-05-10T07:32:35.304Z,15.24
2023-05-10T07:35:04.321Z,15.16
2023-05-10T07:37:32.222Z,15.40
2023-05-10T07:40:00.106Z,15.50
2023-05-10T07:42:27.980Z,15.67
2023-05-10T07:44:55.847Z,15.88
2023-05-10T07:47:24.352Z,15.92
2023-05-10T07:49:52.310Z,15.98
2023-05-10T07:52:22.413Z,16.11
2023-05-10T07:54:50.587Z,16.24
2023-05-10T07:57:19.129Z,16.28
2023-05-10T07:59:47.668Z,16.53
2023-05-10T08:02:15.473Z,16.61
2023-05-10T08:04:43.660Z,16.61
2023-05-10T08:07:12.184Z,16.73
2023-05-10T08:09:39.973Z,16.81
2023-05-10T08:12:07.734Z,16.14
2023-05-10T08:14:37.495Z,16.02
2023-05-10T08:17:05.498Z,16.15
2023-05-10T08:19:33.435Z,16.04
2023-05-10T08:22:01.351Z,16.08
2023-05-10T08:24:29.222Z,16.30
2023-05-10T08:26:57.162Z,16.50
2023-05-10T08:29:26.625Z,16.72
2023-05-10T08:31:54.548Z,16.80
2023-05-10T08:34:22.669Z,16.83
2023-05-10T08:36:50.763Z,16.84
2023-05-10T08:39:29.211Z,16.81
2023-05-10T08:42:02.401Z,17.33
2023-05-10T08:44:36.622Z,17.89
2023-05-10T08:47:08.171Z,18.09
2023-05-10T08:49:37.948Z,18.24
2023-05-10T08:52:08.260Z,18.32
2023-05-10T08:54:37.412Z,18.54
2023-05-10T08:57:05.641Z,18.62
2023-05-10T08:59:34.160Z,18.76
2023-05-10T09:02:03.082Z,18.92
2023-05-10T09:04:32.160Z,18.86
2023-05-10T09:07:00.464Z,18.57
2023-05-10T09:09:28.940Z,17.96
2023-05-10T09:11:57.209Z,17.79
2023-05-10T09:14:26.159Z,18.35
2023-05-10T09:16:56.375Z,18.43
2023-05-10T09:19:24.431Z,18.47
2023-05-10T09:21:52.281Z,18.42
2023-05-10T09:24:20.437Z,18.60
2023-05-10T09:26:49.769Z,18.81
2023-05-10T09:29:18.208Z,19.06
2023-05-10T09:31:52.602Z,19.00
2023-05-10T09:34:41.347Z,18.94
2023-05-10T09:37:09.345Z,18.76
2023-05-10T09:39:38.802Z,19.00
2023-05-10T09:42:11.222Z,19.11
2023-05-10T09:44:39.387Z,19.10
2023-05-10T09:47:33.700Z,19.25
2023-05-10T09:50:07.820Z,19.38
2023-05-10T09:53:04.120Z,19.28
2023-05-10T09:55:47.563Z,19.37
2023-05-10T09:58:15.911Z,19.46
2023-05-10T10:00:46.159Z,19.48
2023-05-10T10:03:24.073Z,19.49
2023-05-10T10:05:52.380Z,19.62
2023-05-10T10:08:20.330Z,20.00
2023-05-10T10:10:48.402Z,19.98
2023-05-10T10:13:16.738Z,19.86
2023-05-10T10:15:45.691Z,19.82
2023-05-10T10:18:16.211Z,19.78
2023-05-10T10:20:44.742Z,19.57
2023-05-10T10:23:13.169Z,19.75
2023-05-10T10:25:42.816Z,19.91
2023-05-10T10:28:28.462Z,19.98
2023-05-10T10:31:01.827Z,19.26
2023-05-10T10:33:58.057Z,19.30
2023-05-10T10:36:28.272Z,19.22
2023-05-10T10:39:02.238Z,19.24
2023-05-10T10:42:01.101Z,19.47
2023-05-10T10:44:34.403Z,19.51
2023-05-10T10:47:06.735Z,19.64
2023-05-10T10:49:41.596Z,19.69
2023-05-10T10:52:34.558Z,19.68
2023-05-10T10:55:14.627Z,19.77
2023-05-10T10:57:52.715Z,19.93
2023-05-10T11:00:25.038Z,20.07
2023-05-10T11:03:19.999Z,20.26
2023-05-10T11:05:49.692Z,20.33
2023-05-10T11:08:35.126Z,20.30
2023-05-10T11:11:10.316Z,20.22
2023-05-10T11:13:41.927Z,20.40
2023-05-10T11:16:12.719Z,20.50
2023-05-10T11:18:41.209Z,20.46
2023-05-10T11:21:11.612Z,20.63
2023-05-10T11:23:45.682Z,20.77
2023-05-10T11:26:14.264Z,20.79
2023-05-10T11:28:48.161Z,20.48
2023-05-10T11:31:18.195Z,20.59
2023-05-10T11:33:51.553Z,20.65
2023-05-10T11:36:26.885Z,20.66
2023-05-10T11:38:56.454Z,20.84
2023-05-10T11:41:26.138Z,20.79
2023-05-10T11:43:55.673Z,20.96
2023-05-10T11:46:27.568Z,21.24
2023-05-10T11:49:02.541Z,21.29
2023-05-10T11:51:34.533Z,21.10
2023-05-10T11:54:09.765Z,21.35
2023-05-10T11:56:41.534Z,20.83
2023-05-10T11:59:09.579Z,20.90
2023-05-10T12:01:37.809Z,21.36
2023-05-10T12:04:05.894Z,21.64
2023-05-10T12:06:41.445Z,21.90
2023-05-10T12:09:09.603Z,22.75
2023-05-10T12:11:42.802Z,23.96
2023-05-10T12:14:12.499Z,24.15
2023-05-10T12:16:40.824Z,24.47
2023-05-10T12:19:09.055Z,25.22
2023-05-10T12:21:37.132Z,25.20
2023-05-10T12:24:06.292Z,24.51
2023-05-10T12:26:36.237Z,23.58
2023-05-10T12:29:19.901Z,23.55
2023-05-10T12:31:55.168Z,23.77
2023-05-10T12:34:35.852Z,23.34
2023-05-10T12:37:04.802Z,22.99
2023-05-10T12:39:45.354Z,22.51
2023-05-10T12:42:13.323Z,22.59
2023-05-10T12:44:41.253Z,22.55
2023-05-10T12:47:09.102Z,23.49
2023-05-10T12:49:37.034Z,23.83
2023-05-10T12:52:05.409Z,23.55
2023-05-10T12:54:33.204Z,23.53
2023-05-10T12:57:01.210Z,24.11
2023-05-10T12:59:29.031Z,24.26
2023-05-10T13:01:58.709Z,24.36
2023-05-10T13:04:26.726Z,23.97
2023-05-10T13:06:57.121Z,24.18
2023-05-10T13:09:26.207Z,24.05
2023-05-10T13:11:55.135Z,24.05
2023-05-10T13:14:23.044Z,23.74
2023-05-10T13:16:50.962Z,23.45
2023-05-10T13:19:18.918Z,23.94
2023-05-10T13:21:47.152Z,24.14
2023-05-10T13:24:14.980Z,24.07
2023-05-10T13:26:42.814Z,23.62
2023-05-10T13:29:10.881Z,24.29
2023-05-10T13:31:38.774Z,24.39
2023-05-10T13:34:07.058Z,24.72
2023-05-10T13:36:34.893Z,24.65
2023-05-10T13:39:04.452Z,24.33
2023-05-10T13:41:32.695Z,24.88
2023-05-10T13:44:00.794Z,24.54
2023-05-10T13:46:31.142Z,24.81
2023-05-10T13:48:58.987Z,25.12
2023-05-10T13:51:26.839Z,23.98
2023-05-10T13:53:54.624Z,24.02
2023-05-10T13:57:38.952Z,24.29
2023-05-10T14:00:26.164Z,24.36
2023-05-10T14:02:55.116Z,25.09
2023-05-10T14:05:26.200Z,25.13
2023-05-10T14:07:55.264Z,24.68
2023-05-10T14:10:23.350Z,24.40
2023-05-10T14:12:51.878Z,24.21
2023-05-10T14:15:20.335Z,24.68
2023-05-10T14:17:48.818Z,24.54
2023-05-10T14:20:16.953Z,24.30
2023-05-10T14:22:44.931Z,24.13
2023-05-10T14:25:13.575Z,24.45
2023-05-10T14:27:41.343Z,24.05
2023-05-10T14:30:09.940Z,23.58
2023-05-10T14:32:38.132Z,23.81
2023-05-10T14:35:07.216Z,24.55
2023-05-10T14:37:35.612Z,23.54
2023-05-10T14:40:05.364Z,22.44
2023-05-10T14:42:33.267Z,24.19
2023-05-10T14:45:01.244Z,24.86
2023-05-10T14:47:29.591Z,23.85
2023-05-10T14:49:57.375Z,24.28
2023-05-10T14:53:41.123Z,25.22
2023-05-10T14:56:29.018Z,25.07
2023-05-10T14:58:57.794Z,24.06
2023-05-10T15:01:27.286Z,23.66
2023-05-10T15:03:56.189Z,24.66
2023-05-10T15:06:32.519Z,24.84
2023-05-10T15:09:02.578Z,24.21
2023-05-10T15:11:31.225Z,23.74
2023-05-10T15:13:59.792Z,23.67
2023-05-10T15:16:27.980Z,24.40
2023-05-10T15:18:56.298Z,24.52
2023-05-10T15:21:24.181Z,24.70
2023-05-10T15:23:52.040Z,24.48
2023-05-10T15:26:19.802Z,23.66
2023-05-10T15:28:47.636Z,22.79
2023-05-10T15:31:15.509Z,23.07
2023-05-10T15:33:44.252Z,23.52
2023-05-10T15:36:12.330Z,23.52
2023-05-10T15:38:40.346Z,24.21
2023-05-10T15:41:08.202Z,24.17
2023-05-10T15:43:36.578Z,23.77
2023-05-10T15:46:06.883Z,24.02
2023-05-10T15:48:34.806Z,24.39
2023-05-10T15:51:02.735Z,24.23
2023-05-10T15:53:30.747Z,24.00
2023-05-10T15:55:58.523Z,23.72
2023-05-10T15:58:26.377Z,24.08
2023-05-10T16:00:54.194Z,24.57
2023-05-10T16:03:22.192Z,24.31
2023-05-10T16:05:50.031Z,22.49
2023-05-10T16:08:17.820Z,22.28
2023-05-10T16:10:45.835Z,22.88
2023-05-10T16:13:15.123Z,22.97
2023-05-10T16:15:43.228Z,22.61
2023-05-10T16:18:11.239Z,22.80
2023-05-10T16:20:39.212Z,23.19
2023-05-10T16:23:07.814Z,23.58
2023-05-10T16:25:36.181Z,23.71
2023-05-10T16:28:04.102Z,23.34
2023-05-10T16:30:32.336Z,23.08
2023-05-10T16:33:02.094Z,22.99
2023-05-10T16:35:30.222Z,23.37
2023-05-10T16:37:58.425Z,22.30
2023-05-10T16:40:26.193Z,22.36
2023-05-10T16:42:54.001Z,22.74
2023-05-10T16:45:21.925Z,22.47
2023-05-10T16:47:49.864Z,22.50
2023-05-10T16:50:17.680Z,22.52
2023-05-10T16:52:45.729Z,22.56
2023-05-10T16:55:13.483Z,22.63
2023-05-10T16:57:41.373Z,22.82
2023-05-10T17:00:11.915Z,22.57
2023-05-10T17:02:39.934Z,21.86
2023-05-10T17:05:08.918Z,21.66
2023-05-10T17:07:36.729Z,22.00
2023-05-10T17:10:05.082Z,22.10
2023-05-10T17:12:32.991Z,22.15
2023-05-10T17:15:00.855Z,21.80
2023-05-10T17:17:28.978Z,21.66
2023-05-10T17:19:57.203Z,21.62
2023-05-10T17:22:25.313Z,21.23
2023-05-10T17:24:53.354Z,21.11
2023-05-10T17:27:21.422Z,21.16
2023-05-10T17:29:49.391Z,21.01
2023-05-10T17:32:17.383Z,20.83
2023-05-10T17:34:45.330Z,20.72
2023-05-10T17:37:13.286Z,20.69
2023-05-10T17:39:41.389Z,20.46
2023-05-10T17:42:09.241Z,20.42
2023-05-10T17:44:37.049Z,20.39
2023-05-10T17:47:04.990Z,20.20
2023-05-10T17:49:32.872Z,20.04
2023-05-10T17:52:00.786Z,20.03
2023-05-10T17:54:28.818Z,19.85
2023-05-10T17:56:58.128Z,19.60
2023-05-10T17:59:26.156Z,19.68
2023-05-10T18:01:54.065Z,19.67
2023-05-10T18:04:22.151Z,19.57
2023-05-10T18:06:50.178Z,19.34
2023-05-10T18:09:21.111Z,19.31
2023-05-10T18:11:48.876Z,19.05
2023-05-10T18:14:28.307Z,18.98
2023-05-10T18:17:04.502Z,19.06
2023-05-10T18:19:32.450Z,19.09
2023-05-10T18:22:00.371Z,18.98
2023-05-10T18:24:38.287Z,18.80
2023-05-10T18:27:09.107Z,18.75
2023-05-10T18:29:37.463Z,18.64
2023-05-10T18:32:06.698Z,18.35
2023-05-10T18:34:34.674Z,18.41
2023-05-10T18:37:07.819Z,18.38
2023-05-10T18:39:39.286Z,18.31
2023-05-10T18:42:08.227Z,18.22
2023-05-10T18:44:36.323Z,18.15
2023-05-10T18:47:04.525Z,18.04
2023-05-10T18:49:32.457Z,18.10
2023-05-10T18:52:00.473Z,18.08
2023-05-10T18:54:29.219Z,18.03
2023-05-10T18:56:58.808Z,17.99
2023-05-10T18:59:28.086Z,17.93
2023-05-10T19:01:57.479Z,17.87
2023-05-10T19:04:25.996Z,17.76
2023-05-10T19:06:54.022Z,17.72
2023-05-10T19:09:22.307Z,17.70
2023-05-10T19:11:51.599Z,17.61
2023-05-10T19:14:19.928Z,17.58
2023-05-10T19:16:48.229Z,17.56
2023-05-10T19:19:16.148Z,17.39
2023-05-10T19:21:44.700Z,17.36
2023-05-10T19:24:13.797Z,17.23
2023-05-10T19:26:41.800Z,17.20
2023-05-10T19:29:09.668Z,17.16
2023-05-10T19:31:37.699Z,17.13
2023-05-10T19:34:06.732Z,17.04
2023-05-10T19:36:35.303Z,17.08
2023-05-10T19:39:03.269Z,17.07
2023-05-10T19:41:31.172Z,16.94
2023-05-10T19:43:59.832Z,16.97
2023-05-10T19:46:27.656Z,16.93
2023-05-10T19:48:55.592Z,16.94
2023-05-10T19:51:23.381Z,16.97
2023-05-10T19:53:51.229Z,16.94
2023-05-10T19:56:19.461Z,16.94
2023-05-10T19:58:47.376Z,16.91
2023-05-10T20:01:15.309Z,16.84
2023-05-10T20:03:43.200Z,16.79
2023-05-10T20:06:11.886Z,16.69
2023-05-10T20:08:39.713Z,16.66
2023-05-10T20:11:07.564Z,16.72
2023-05-10T20:13:35.452Z,16.60
2023-05-10T20:16:05.047Z,16.56
2023-05-10T20:18:33.497Z,16.53
2023-05-10T20:21:01.458Z,16.39
2023-05-10T20:23:29.257Z,16.27
2023-05-10T20:25:57.171Z,16.32
2023-05-10T20:28:26.211Z,16.22
2023-05-10T20:30:55.682Z,16.29
2023-05-10T20:33:24.572Z,16.25
2023-05-10T20:35:52.541Z,16.06
2023-05-10T20:38:21.264Z,15.87
2023-05-10T20:40:49.200Z,15.75
2023-05-10T20:43:17.212Z,15.75
2023-05-10T20:45:44.969Z,15.77
2023-05-10T20:48:13.251Z,15.83
2023-05-10T20:50:40.999Z,15.80
2023-05-10T20:53:08.935Z,15.63
2023-05-10T20:55:36.728Z,15.54
2023-05-10T20:58:05.093Z,15.59
2023-05-10T21:00:33.403Z,15.56
2023-05-10T21:03:01.238Z,15.43
2023-05-10T21:05:29.075Z,15.37
2023-05-10T21:07:57.004Z,15.39
2023-05-10T21:10:28.263Z,15.38
2023-05-10T21:12:56.640Z,15.37
2023-05-10T21:15:25.547Z,15.33
2023-05-10T21:17:54.406Z,15.36
2023-05-10T21:20:23.440Z,15.35
2023-05-10T21:22:51.309Z,15.23
2023-05-10T21:25:19.261Z,15.31
2023-05-10T21:27:47.205Z,15.35
2023-05-10T21:30:15.194Z,15.38
2023-05-10T21:32:43.255Z,15.32
2023-05-10T21:35:11.133Z,15.18
2023-05-10T21:37:38.932Z,15.14
2023-05-10T21:40:07.788Z,15.03
2023-05-10T21:42:35.564Z,14.98
2023-05-10T21:45:04.176Z,14.94
2023-05-10T21:47:31.971Z,14.82
2023-05-10T21:50:00.113Z,14.79
2023-05-10T21:52:27.931Z,14.80
2023-05-10T21:54:55.720Z,14.74
2023-05-10T21:57:23.479Z,14.76
2023-05-10T21:59:51.299Z,14.65
2023-05-10T22:02:19.166Z,14.66
2023-05-10T22:04:46.951Z,14.60
2023-05-10T22:07:16.756Z,14.52
2023-05-10T22:09:44.590Z,14.43
2023-05-10T22:12:12.957Z,14.42
2023-05-10T22:14:41.009Z,14.45
2023-05-10T22:17:09.001Z,14.33
2023-05-10T22:19:36.803Z,14.34
2023-05-10T22:22:04.729Z,14.30
2023-05-10T22:24:32.576Z,14.33
2023-05-10T22:27:01.898Z,14.23
2023-05-10T22:29:30.277Z,14.21
2023-05-10T22:31:58.832Z,14.18
2023-05-10T22:34:26.674Z,14.13
2023-05-10T22:36:54.490Z,14.03
2023-05-10T22:39:22.498Z,13.76
2023-05-10T22:41:50.250Z,13.60
2023-05-10T22:44:18.091Z,13.67
2023-05-10T22:46:46.142Z,13.69
2023-05-10T22:49:14.162Z,13.53
2023-05-10T22:51:41.984Z,13.53
2023-05-10T22:54:09.765Z,13.59
2023-05-10T22:56:37.696Z,13.59
2023-05-10T22:59:05.503Z,13.59
2023-05-10T23:01:33.656Z,13.49
2023-05-10T23:04:01.597Z,13.45
2023-05-10T23:06:29.442Z,13.40
2023-05-10T23:08:57.369Z,13.46
2023-05-10T23:11:25.514Z,13.41
2023-05-10T23:13:53.306Z,13.48
2023-05-10T23:16:21.486Z,13.39
2023-05-10T23:18:49.433Z,13.46
2023-05-10T23:21:17.547Z,13.37
2023-05-10T23:23:45.461Z,13.29
2023-05-10T23:26:13.232Z,13.31
2023-05-10T23:28:41.082Z,13.33
2023-05-10T23:31:09.284Z,13.30
2023-05-10T23:33:37.157Z,13.15
2023-05-10T23:36:05.280Z,13.13
2023-05-10T23:38:33.104Z,13.26
2023-05-10T23:41:00.895Z,13.32
2023-05-10T23:43:28.669Z,13.35
2023-05-10T23:45:57.635Z,13.38
2023-05-10T23:48:25.603Z,13.32
2023-05-10T23:50:53.539Z,13.21
2023-05-10T23:53:21.473Z,13.12
2023-05-10T23:55:49.251Z,13.02
2023-05-10T23:58:17.028Z,13.11
